createdAt,value
2023-04-29T00:00:33.440Z,51.71522956980671
2023-04-29T00:03:32.237Z,51.1044506880034
2023-04-29T00:06:28.688Z,51.30499518899651
2023-04-29T00:09:25.134Z,52.92789801090043
2023-04-29T00:12:21.684Z,52.44051577194811
2023-04-29T00:15:17.244Z,51.66735667248768
2023-04-29T00:18:13.853Z,51.762214571592004
2023-04-29T00:21:10.329Z,51.48904199112356
2023-04-29T00:24:06.948Z,52.47969247238185
2023-04-29T00:27:03.479Z,51.974296343229106
2023-04-29T00:29:59.018Z,53.20701610403984
2023-04-29T00:35:51.180Z,54.45562495931172
2023-04-29T00:38:46.760Z,54.055659043009
2023-04-29T00:41:42.306Z,53.42027860263425
2023-04-29T00:44:38.831Z,54.39234954129548
2023-04-29T00:47:34.400Z,53.680707653753736
2023-04-29T00:50:30.970Z,55.25031521013349
2023-04-29T00:53:26.575Z,55.60107292939627
2023-04-29T00:56:24.092Z,54.36623684406371
2023-04-29T00:59:23.634Z,55.65460934997126
2023-04-29T01:02:19.209Z,54.44517395193796
2023-04-29T01:05:14.745Z,53.9730173796721
2023-04-29T01:08:21.301Z,52.71218110375375
2023-04-29T01:11:22.837Z,52.94185397293542
2023-04-29T01:14:24.393Z,52.27677325541698
2023-04-29T01:17:24.930Z,51.768227491479834
2023-04-29T01:20:24.500Z,51.99867428065541
2023-04-29T01:23:21.051Z,52.06698970179643
2023-04-29T01:26:18.586Z,51.97927976327224
2023-04-29T01:29:24.117Z,52.065582191500894
2023-04-29T01:32:26.726Z,51.839659674073346
2023-04-29T01:35:35.185Z,51.62214820145708
2023-04-29T01:38:39.779Z,51.19967216392932
2023-04-29T01:41:43.261Z,51.07732211155818
2023-04-29T01:44:41.872Z,50.789992784549476
2023-04-29T01:47:39.461Z,49.93488329144001
2023-04-29T01:50:35.979Z,49.751320405390466
2023-04-29T01:53:32.526Z,49.313224189415905
2023-04-29T01:56:28.084Z,49.23605784361986
2023-04-29T01:59:23.638Z,50.35270354037181
2023-04-29T02:02:21.412Z,50.40133634592889
2023-04-29T02:05:17.765Z,49.442435946940925
2023-04-29T02:08:14.302Z,50.33472631309884
2023-04-29T02:11:09.850Z,50.96878775336793
2023-04-29T02:14:05.417Z,51.48934993426412
2023-04-29T02:17:00.984Z,50.75375787016019
2023-04-29T02:19:56.588Z,50.620185616897984
2023-04-29T02:22:52.135Z,51.19390938966419
2023-04-29T02:25:48.672Z,51.414299647715616
2023-04-29T02:28:44.287Z,52.14557686545976
2023-04-29T02:31:39.814Z,51.43608070008694
2023-04-29T02:34:36.435Z,51.5957052019045
2023-04-29T02:37:31.882Z,51.739379490161504
2023-04-29T02:40:27.519Z,51.09403470053752
2023-04-29T02:43:24.089Z,51.02548226994548
2023-04-29T02:46:20.708Z,51.00413313198669
2023-04-29T02:49:16.169Z,50.71802397945285
2023-04-29T02:52:13.758Z,51.488318807562244
2023-04-29T02:55:10.272Z,51.65557195911614
2023-04-29T02:58:06.870Z,52.95986495809285
2023-04-29T03:01:03.423Z,51.91187290667247
2023-04-29T03:04:00.160Z,52.843386949573116
2023-04-29T03:06:56.506Z,52.15277102706661
2023-04-29T03:09:53.216Z,52.4559529228301
2023-04-29T03:12:49.657Z,52.36892494122343
2023-04-29T03:15:45.191Z,53.33686881054629
2023-04-29T03:18:40.763Z,54.2827527109988
2023-04-29T03:21:36.318Z,56.7690007015528
2023-04-29T03:24:32.869Z,57.363007381629856
2023-04-29T03:27:28.427Z,57.48620092717917
2023-04-29T03:30:25.020Z,57.04129239973887
2023-04-29T03:33:20.565Z,56.02066196141173
2023-04-29T03:36:17.106Z,56.18971916474403
2023-04-29T03:39:12.671Z,55.95192655893964
2023-04-29T03:42:08.264Z,56.978954847116405
2023-04-29T03:45:04.778Z,56.325212664939784
2023-04-29T03:48:00.466Z,56.44013635736578
2023-04-29T03:50:55.934Z,56.66376216139208
2023-04-29T03:53:53.458Z,56.184740780636076
2023-04-29T03:56:49.037Z,56.74295087199311
2023-04-29T03:59:45.602Z,55.44983924448984
2023-04-29T04:02:41.252Z,55.61566263723341
2023-04-29T04:05:36.708Z,54.97296231537066
2023-04-29T04:08:32.278Z,55.062480970531404
2023-04-29T04:11:35.823Z,55.715425804750936
2023-04-29T04:14:31.372Z,55.20260110072652
2023-04-29T04:17:26.917Z,55.436575102939386
2023-04-29T04:20:22.506Z,55.204979436350975
2023-04-29T04:23:18.083Z,55.472157673795294
2023-04-29T04:26:18.646Z,55.10563122467413
2023-04-29T04:29:14.159Z,55.172470840977
2023-04-29T04:32:09.844Z,54.942240478115735
2023-04-29T04:35:06.294Z,54.81073831601511
2023-04-29T04:38:01.868Z,54.40158432752608
2023-04-29T04:40:57.439Z,54.66036427952359
2023-04-29T04:43:52.981Z,53.93636087668667
2023-04-29T04:46:50.554Z,53.90799368430236
2023-04-29T04:49:46.108Z,53.50288757893069
2023-04-29T04:52:42.682Z,53.757413966644826
2023-04-29T04:55:39.258Z,53.73216695527437
2023-04-29T04:58:34.783Z,54.38976883744565
2023-04-29T05:01:30.411Z,53.64267679715569
2023-04-29T05:04:27.098Z,52.53726998325126
2023-04-29T05:07:22.493Z,52.533024178245256
2023-04-29T05:10:17.998Z,54.19909543086918
2023-04-29T05:13:13.616Z,53.20790294570322
2023-04-29T05:16:09.127Z,54.49856187770591
2023-04-29T05:19:06.745Z,54.56842752393923
2023-04-29T05:22:03.211Z,54.39115705620758
2023-04-29T05:25:03.825Z,54.52433925778018
2023-04-29T05:27:59.402Z,54.41788609230775
2023-04-29T05:30:54.959Z,53.294963905569205
2023-04-29T05:33:50.524Z,52.7899580617633
2023-04-29T05:36:46.055Z,53.797109007359126
2023-04-29T05:39:41.589Z,52.41493629513421
2023-04-29T05:42:38.176Z,50.953765140677
2023-04-29T05:45:36.045Z,52.29754855669064
2023-04-29T05:48:31.290Z,52.313271920078876
2023-04-29T05:51:30.064Z,53.40908488792008
2023-04-29T05:54:33.399Z,50.34669780515238
2023-04-29T05:57:38.922Z,52.2728151595801
2023-04-29T06:00:45.508Z,51.6358303430449
2023-04-29T06:03:41.153Z,50.86935717350438
2023-04-29T06:06:52.525Z,50.83087947944542
2023-04-29T06:10:07.757Z,51.75670693256307
2023-04-29T06:13:08.606Z,52.26482391716799
2023-04-29T06:16:11.063Z,52.785149949875645
2023-04-29T06:19:10.765Z,52.64239875280806
2023-04-29T06:22:20.935Z,52.37625233787857
2023-04-29T06:25:30.484Z,52.21514896593024
2023-04-29T06:28:34.919Z,51.63479637751943
2023-04-29T06:31:39.285Z,52.22517768337152
2023-04-29T06:34:35.384Z,52.06411957083718
2023-04-29T06:37:43.886Z,54.25605926945231
2023-04-29T06:40:45.252Z,52.65129650092672
2023-04-29T06:43:48.927Z,53.214595209051836
2023-04-29T06:46:44.595Z,52.81824888755845
2023-04-29T06:49:44.102Z,52.90342904309371
2023-04-29T06:52:47.675Z,52.930589946550484
2023-04-29T06:55:51.181Z,52.0218220634317
2023-04-29T06:58:52.553Z,51.71662050340453
2023-04-29T07:02:01.986Z,51.02101579835121
2023-04-29T07:05:09.809Z,50.95314147775237
2023-04-29T07:08:14.531Z,50.93661631280268
2023-04-29T07:11:26.851Z,52.29034510210696
2023-04-29T07:14:34.101Z,51.46402479759338
2023-04-29T07:17:33.992Z,51.425682446800025
2023-04-29T07:20:36.532Z,51.254177866122035
2023-04-29T07:23:38.019Z,51.61239729178578
2023-04-29T07:26:45.585Z,50.774221451175954
2023-04-29T07:29:41.116Z,50.93418532302015
2023-04-29T07:32:41.699Z,51.55251718399826
2023-04-29T07:35:47.210Z,51.20613561396369
2023-04-29T07:38:47.775Z,51.66146881631874
2023-04-29T07:41:48.562Z,50.96036166905216
2023-04-29T07:44:54.071Z,50.850777121363876
2023-04-29T07:47:54.516Z,50.30869206995047
2023-04-29T07:50:54.950Z,50.4851723382302
2023-04-29T07:53:54.486Z,49.79724967432856
2023-04-29T07:56:56.856Z,49.56941261288653
2023-04-29T08:00:01.563Z,52.07826234638248
2023-04-29T08:03:03.266Z,50.37106147656334
2023-04-29T08:06:03.695Z,49.184088603579475
2023-04-29T08:09:15.201Z,47.6534915166789
2023-04-29T08:12:16.749Z,48.99269247715428
2023-04-29T08:15:12.317Z,47.35676960984917
2023-04-29T08:18:12.864Z,46.892556906302694
2023-04-29T08:21:17.459Z,42.028933082953536
2023-04-29T08:24:13.950Z,43.056310129887954
2023-04-29T08:30:20.104Z,43.640679442096975
2023-04-29T08:33:16.629Z,44.34503043105417
2023-04-29T08:36:22.834Z,42.54283501939366
2023-04-29T08:39:29.668Z,43.25683107211742
2023-04-29T08:42:34.198Z,43.56071592798349
2023-04-29T08:45:33.827Z,41.20195458391472
2023-04-29T08:48:41.936Z,40.39817041557586
2023-04-29T08:51:55.867Z,40.089149347964394
2023-04-29T08:55:10.149Z,40.078636213065074
2023-04-29T08:58:13.880Z,37.35253309377947
2023-04-29T09:01:20.342Z,38.77787698138111
2023-04-29T09:04:34.717Z,36.608780510422655
2023-04-29T09:07:38.431Z,36.55839813719524
2023-04-29T09:10:44.998Z,36.302946208440595
2023-04-29T09:13:51.527Z,34.99671826787415
2023-04-29T09:16:48.101Z,32.90211987118085
2023-04-29T09:19:56.623Z,32.41412798318842
2023-04-29T09:23:07.144Z,31.695005420233024
2023-04-29T09:26:03.696Z,33.46082926890897
2023-04-29T09:29:13.658Z,33.81978478413611
2023-04-29T09:32:19.832Z,30.81373787047988
2023-04-29T09:35:26.322Z,31.33762898798674
2023-04-29T09:38:26.642Z,34.51914480670698
2023-04-29T09:41:30.316Z,31.07024190415221
2023-04-29T09:44:41.885Z,31.017611884236118
2023-04-29T09:47:52.547Z,33.28026734526306
2023-04-29T09:51:07.345Z,33.51358814329328
2023-04-29T09:54:20.437Z,31.89448133515402
2023-04-29T09:57:36.440Z,32.4019260335158
2023-04-29T10:00:47.322Z,34.34098986212789
2023-04-29T10:03:55.062Z,35.056358611655924
2023-04-29T10:06:57.567Z,32.81354073369162
2023-04-29T10:10:00.285Z,34.61266032502399
2023-04-29T10:13:16.497Z,33.07779358662545
2023-04-29T10:16:33.482Z,33.38960260947303
2023-04-29T10:19:39.865Z,32.84917597154919
2023-04-29T10:22:54.175Z,31.242458519719317
2023-04-29T10:26:03.672Z,34.64452731503529
2023-04-29T10:29:15.734Z,31.263069909894497
2023-04-29T10:32:16.732Z,31.372032507144056
2023-04-29T10:35:20.638Z,31.768267975723255
2023-04-29T10:38:28.850Z,32.37761441112548
2023-04-29T10:41:50.462Z,32.90504793627684
2023-04-29T10:45:06.823Z,32.688203174984224
2023-04-29T10:48:13.435Z,32.972874247038426
2023-04-29T10:51:19.057Z,30.007678502795677
2023-04-29T10:54:31.423Z,30.69335399187219
2023-04-29T10:57:32.020Z,30.335747163978283
2023-04-29T11:00:38.814Z,30.922610984268502
2023-04-29T11:03:55.533Z,33.133749425268135
2023-04-29T11:06:55.557Z,32.326483192732745
2023-04-29T11:09:57.251Z,32.2668155229991
2023-04-29T11:13:06.627Z,31.110188796343415
2023-04-29T11:16:13.122Z,31.42404555279936
2023-04-29T11:19:23.535Z,30.764172143477218
2023-04-29T11:22:30.243Z,31.323204287729947
2023-04-29T11:25:33.758Z,29.014713723902794
2023-04-29T11:28:35.324Z,28.010982289062913
2023-04-29T11:31:45.884Z,26.403842794105145
2023-04-29T11:35:01.379Z,28.681155596612715
2023-04-29T11:37:59.981Z,28.560083989814867
2023-04-29T11:41:01.467Z,28.025176847820116
2023-04-29T11:44:11.717Z,28.84630827743799
2023-04-29T11:47:13.566Z,26.78932693055069
2023-04-29T11:50:10.138Z,29.24580386458463
2023-04-29T11:53:13.449Z,25.998382521125947
2023-04-29T11:56:27.160Z,25.854926256493712
2023-04-29T11:59:31.680Z,26.007361932147425
2023-04-29T12:02:35.345Z,24.90463745366133
2023-04-29T12:05:43.577Z,26.681186476662845
2023-04-29T12:08:56.056Z,27.649444228337632
2023-04-29T12:11:56.845Z,27.726168917333716
2023-04-29T12:14:52.906Z,26.97205207566811
2023-04-29T12:17:51.009Z,26.17413652596057
2023-04-29T12:20:51.506Z,24.682288261841816
2023-04-29T12:24:05.194Z,25.850134838860306
2023-04-29T12:27:06.479Z,24.75779870066874
2023-04-29T12:30:17.057Z,25.412333243445055
2023-04-29T12:33:24.569Z,25.28568627952614
2023-04-29T12:36:37.141Z,25.464898087198787
2023-04-29T12:39:49.688Z,24.820597308662002
2023-04-29T12:42:49.247Z,23.16425036333222
2023-04-29T12:46:02.716Z,22.126046547579286
2023-04-29T12:49:07.259Z,24.344454458061843
2023-04-29T12:52:09.793Z,25.296148362144113
2023-04-29T12:55:13.351Z,26.560471047989004
2023-04-29T12:58:13.887Z,22.878360377616456
2023-04-29T13:01:18.715Z,20.9823464353999
2023-04-29T13:04:29.153Z,23.584272143947857
2023-04-29T13:07:41.221Z,24.14826471168604
2023-04-29T13:10:50.893Z,24.69849580488339
2023-04-29T13:13:46.580Z,23.295130274328468
2023-04-29T13:16:47.502Z,20.155579065712516
2023-04-29T13:19:51.903Z,19.790293634491793
2023-04-29T13:22:55.844Z,21.446175780961088
2023-04-29T13:25:57.660Z,21.130862994094205
2023-04-29T13:28:54.283Z,22.43763588638995
2023-04-29T13:31:49.888Z,23.299601056060855
2023-04-29T13:34:51.224Z,22.857232462728554
2023-04-29T13:37:47.972Z,23.818006254933795
2023-04-29T13:40:58.474Z,26.356934090936647
2023-04-29T13:43:57.840Z,27.076312009377162
2023-04-29T13:47:01.564Z,24.898877212279835
2023-04-29T13:53:35.520Z,28.77714627135123
2023-04-29T14:02:35.208Z,27.267216844021014
2023-04-29T14:05:46.877Z,28.149497948668223
2023-04-29T14:08:47.341Z,27.198378401006238
2023-04-29T14:11:52.180Z,26.77218277063549
2023-04-29T14:14:59.629Z,28.56886705529388
2023-04-29T14:18:06.122Z,29.2968067727421
2023-04-29T14:21:07.519Z,29.871055525250092
2023-04-29T14:24:14.037Z,30.21134676911914
2023-04-29T14:27:25.850Z,30.710100513862965
2023-04-29T14:30:26.489Z,30.699706190477155
2023-04-29T14:33:27.633Z,31.56341939688665
2023-04-29T14:36:37.263Z,31.075649660230482
2023-04-29T14:39:42.670Z,29.656174918126172
2023-04-29T14:42:46.242Z,30.4561781266429
2023-04-29T14:45:44.794Z,29.311686760906255
2023-04-29T14:48:41.359Z,28.14695523687433
2023-04-29T14:51:41.952Z,28.612616287408617
2023-04-29T14:54:43.488Z,27.343919907289937
2023-04-29T14:57:44.021Z,29.441981680477934
2023-04-29T15:00:46.529Z,27.964680156994454
2023-04-29T15:03:47.061Z,24.348325105275524
2023-04-29T15:06:47.622Z,26.857176986662868
2023-04-29T15:09:56.167Z,29.551913507018035
2023-04-29T15:12:56.663Z,29.803398414169674
2023-04-29T15:16:01.345Z,32.80962738895292
2023-04-29T15:19:11.265Z,34.30091555301977
2023-04-29T15:22:12.310Z,31.70985667742312
2023-04-29T15:25:09.894Z,33.22401618726655
2023-04-29T15:28:19.420Z,31.543257029135745
2023-04-29T15:31:14.974Z,32.435956861648144
2023-04-29T15:34:20.364Z,31.61416315845015
2023-04-29T15:37:16.058Z,29.55094378629032
2023-04-29T15:40:27.858Z,30.49981416040265
2023-04-29T15:43:34.185Z,35.006900672824784
2023-04-29T15:46:40.809Z,33.16254943113827
2023-04-29T15:49:42.204Z,31.617622644393762
2023-04-29T15:52:42.763Z,30.171058478328007
2023-04-29T15:55:58.260Z,31.994939908805314
2023-04-29T15:59:03.812Z,31.82342893516728
2023-04-29T16:02:10.380Z,32.534007578893565
2023-04-29T16:05:06.888Z,31.780347873896645
2023-04-29T16:08:21.180Z,33.576292025358185
2023-04-29T16:14:22.485Z,34.6213471572004
2023-04-29T16:17:28.155Z,33.332523858783944
2023-04-29T16:20:39.612Z,34.35209764958312
2023-04-29T16:23:58.206Z,34.74972796141231
2023-04-29T16:27:03.437Z,37.08381888981679
2023-04-29T16:30:13.472Z,36.79966174298109
2023-04-29T16:33:18.316Z,37.300028629376165
2023-04-29T16:36:25.658Z,35.46947310183361
2023-04-29T16:39:27.765Z,35.73482674467373
2023-04-29T16:42:24.318Z,37.006642842750786
2023-04-29T16:45:33.620Z,37.19645126968681
2023-04-29T16:48:36.164Z,37.85536205071937
2023-04-29T16:51:37.897Z,38.69602120725927
2023-04-29T16:54:40.917Z,39.036518835460114
2023-04-29T16:57:45.927Z,38.55497575660458
2023-04-29T17:00:50.446Z,39.58599496262896
2023-04-29T17:03:55.683Z,39.67651020768064
2023-04-29T17:06:51.613Z,40.066917718910375
2023-04-29T17:10:04.492Z,40.57044399897436
2023-04-29T17:13:14.304Z,40.32675506353867
2023-04-29T17:16:19.028Z,40.97033541617127
2023-04-29T17:19:24.772Z,41.63071822060748
2023-04-29T17:22:26.308Z,41.71398751659252
2023-04-29T17:25:26.833Z,42.34467368742395
2023-04-29T17:28:32.432Z,43.38982376263677
2023-04-29T17:31:45.227Z,43.11862718735244
2023-04-29T17:34:52.394Z,42.67365277155356
2023-04-29T17:38:00.711Z,44.140129046740995
2023-04-29T17:41:05.582Z,44.519408888325714
2023-04-29T17:44:12.032Z,44.58554148421438
2023-04-29T17:47:12.612Z,43.573903565203004
2023-04-29T17:50:10.127Z,43.75316375515096
2023-04-29T17:53:10.698Z,44.207162535166205
2023-04-29T17:56:22.860Z,45.42543127766524
2023-04-29T17:59:23.769Z,45.04245677018043
2023-04-29T18:02:30.521Z,45.057686993051995
2023-04-29T18:05:38.830Z,45.442796425560026
2023-04-29T18:08:40.627Z,45.79072401951336
2023-04-29T18:11:41.929Z,47.97742512246297
2023-04-29T18:14:43.450Z,47.47132384327173
2023-04-29T18:17:45.065Z,49.34798229439746
2023-04-29T18:20:51.561Z,49.126417659843035
2023-04-29T18:23:57.085Z,48.226741322736075
2023-04-29T18:26:53.646Z,48.03028257108888
2023-04-29T18:29:54.398Z,48.868429286393386
2023-04-29T18:32:55.784Z,49.12611837438932
2023-04-29T18:36:05.066Z,49.02895582783528
2023-04-29T18:39:04.760Z,48.551699839562566
2023-04-29T18:42:05.137Z,48.913745373899815
2023-04-29T18:45:15.566Z,49.63824657916423
2023-04-29T18:48:15.508Z,49.82025394330253
2023-04-29T18:51:12.029Z,49.913073654898746
2023-04-29T18:54:17.532Z,50.96074641058147
2023-04-29T18:57:23.135Z,50.73109616549317
2023-04-29T19:00:23.509Z,51.453311535698404
2023-04-29T19:03:20.167Z,51.42243388126521
2023-04-29T19:06:20.764Z,52.167549160562224
2023-04-29T19:09:28.910Z,51.68511640460255
2023-04-29T19:12:31.754Z,53.370596174158635
2023-04-29T19:15:32.359Z,53.34298550895573
2023-04-29T19:18:32.757Z,53.393826632689375
2023-04-29T19:21:38.447Z,53.720843585597585
2023-04-29T19:24:43.640Z,53.6232389253967
2023-04-29T19:27:44.567Z,53.779832614606924
2023-04-29T19:30:41.020Z,54.369217793714554
2023-04-29T19:33:42.636Z,54.42137953588447
2023-04-29T19:36:39.174Z,54.889703247564356
2023-04-29T19:39:40.719Z,54.72815793573814
2023-04-29T19:42:42.266Z,54.85384012729186
2023-04-29T19:45:38.864Z,54.63019176367277
2023-04-29T19:48:40.067Z,55.35082947798328
2023-04-29T19:51:37.965Z,56.013266903547525
2023-04-29T19:54:38.498Z,56.80264380471062
2023-04-29T19:57:36.069Z,56.908024597805465
2023-04-29T20:00:31.827Z,56.271901852174885
2023-04-29T20:03:28.332Z,57.104282464674974
2023-04-29T20:06:41.722Z,55.66318594920328
2023-04-29T20:09:38.228Z,57.732988117246805
2023-04-29T20:12:43.763Z,57.81928720365055
2023-04-29T20:15:41.340Z,57.862988041214585
2023-04-29T20:18:36.898Z,57.60808364227104
2023-04-29T20:21:46.322Z,57.35384575439407
2023-04-29T20:24:43.007Z,59.26145813663429
2023-04-29T20:27:53.026Z,59.378803012297574
2023-04-29T20:30:53.050Z,59.80191175475104
2023-04-29T20:33:58.412Z,59.2936310004013
2023-04-29T20:37:04.101Z,58.354470427909945
2023-04-29T20:39:59.684Z,60.143701331349426
2023-04-29T20:43:09.008Z,60.7797327133793
2023-04-29T20:46:05.801Z,59.86621674293764
2023-04-29T20:49:07.311Z,58.731417433483976
2023-04-29T20:52:11.596Z,60.581927995699765
2023-04-29T20:55:17.358Z,60.20374451506358
2023-04-29T20:58:22.949Z,61.10703300470349
2023-04-29T21:01:30.420Z,61.61161363923072
2023-04-29T21:04:27.018Z,61.57161662344214
2023-04-29T21:07:37.891Z,62.73327295108926
2023-04-29T21:10:44.070Z,63.39988898417627
2023-04-29T21:13:51.594Z,62.04587731922444
2023-04-29T21:16:55.182Z,61.22981467907491
2023-04-29T21:20:01.022Z,60.73696039140291
2023-04-29T21:23:10.658Z,60.79687624544237
2023-04-29T21:26:05.786Z,63.424554870363295
2023-04-29T21:29:09.302Z,63.16456202794734
2023-04-29T21:32:10.835Z,62.65209195797104
2023-04-29T21:35:13.404Z,63.757841944831306
2023-04-29T21:38:09.120Z,61.72362691476026
2023-04-29T21:41:23.481Z,63.16064943247665
2023-04-29T21:44:20.996Z,61.63210673169779
2023-04-29T21:47:18.632Z,60.67216593685736
2023-04-29T21:50:16.162Z,62.34011440510774
2023-04-29T21:56:37.220Z,64.45177621765679
2023-04-29T21:59:43.719Z,64.69443081841615
2023-04-29T22:02:55.798Z,62.57558555065549
2023-04-29T22:05:56.831Z,63.99028317323665
2023-04-29T22:09:05.776Z,64.85361151516554
2023-04-29T22:12:11.042Z,65.60129678183704
2023-04-29T22:15:20.708Z,64.33690087108175
2023-04-29T22:18:19.737Z,65.1669150558279
2023-04-29T22:21:32.026Z,64.300192440402
2023-04-29T22:24:36.005Z,64.38936137471079
2023-04-29T22:27:38.019Z,65.05280138103521
2023-04-29T22:30:47.094Z,64.03322553685177
2023-04-29T22:33:49.636Z,65.30600418540655
2023-04-29T22:36:58.495Z,65.59707700147509
2023-04-29T22:40:03.223Z,65.46769728838233
2023-04-29T22:42:59.855Z,66.43191095794167
2023-04-29T22:46:00.837Z,65.86654452985582
2023-04-29T22:49:00.340Z,65.57912721071465
2023-04-29T22:52:02.689Z,65.20046735144896
2023-04-29T22:55:06.357Z,65.8198096894831
2023-04-29T22:58:13.955Z,65.88454528499493
2023-04-29T23:01:16.325Z,64.89934513184741
